createdAt,value
2024-03-04T00:00:42.858Z,71.60
2024-03-04T00:01:42.903Z,63.60
2024-03-04T00:02:43.003Z,68.10
2024-03-04T00:03:42.746Z,63.30
2024-03-04T00:04:43.777Z,66.60
2024-03-04T00:05:42.703Z,67.40
2024-03-04T00:06:43.510Z,64.80
2024-03-04T00:07:42.737Z,66.10
2024-03-04T00:08:42.641Z,67.50
2024-03-04T00:09:42.617Z,68.00
2024-03-04T00:10:42.732Z,62.80
2024-03-04T00:11:42.596Z,67.40
2024-03-04T00:12:42.593Z,67.40
2024-03-04T00:13:42.621Z,65.20
2024-03-04T00:14:42.536Z,67.10
2024-03-04T00:15:43.568Z,64.10
2024-03-04T00:16:42.586Z,67.20
2024-03-04T00:17:42.568Z,62.60
2024-03-04T00:18:42.510Z,64.70
2024-03-04T00:19:42.509Z,66.70
2024-03-04T00:20:42.437Z,63.20
2024-03-04T00:21:42.436Z,65.60
2024-03-04T00:22:42.497Z,63.10
2024-03-04T00:23:42.402Z,67.40
2024-03-04T00:24:42.417Z,64.20
2024-03-04T00:25:42.403Z,65.90
2024-03-04T00:26:43.347Z,64.50
2024-03-04T00:27:42.313Z,65.30
2024-03-04T00:28:43.373Z,64.90
2024-03-04T00:29:42.340Z,58.60
2024-03-04T00:30:42.273Z,65.40
2024-03-04T00:31:42.296Z,63.30
2024-03-04T00:32:42.270Z,66.80
2024-03-04T00:33:42.225Z,61.80
2024-03-04T00:34:42.251Z,62.90
2024-03-04T00:35:42.357Z,62.00
2024-03-04T00:36:42.182Z,61.60
2024-03-04T00:37:42.228Z,58.80
2024-03-04T00:38:42.134Z,60.80
2024-03-04T00:39:42.110Z,57.60
2024-03-04T00:40:42.167Z,63.00
2024-03-04T00:41:42.073Z,60.80
2024-03-04T00:42:42.071Z,63.30
2024-03-04T00:43:42.093Z,64.40
2024-03-04T00:44:42.021Z,64.40
2024-03-04T00:45:42.030Z,62.00
2024-03-04T00:46:42.045Z,61.70
2024-03-04T00:47:41.990Z,60.50
2024-03-04T00:48:41.963Z,62.10
2024-03-04T00:49:41.979Z,59.20
2024-03-04T00:50:41.933Z,58.90
2024-03-04T00:51:41.959Z,62.40
2024-03-04T00:52:41.891Z,59.70
2024-03-04T00:53:41.865Z,62.60
2024-03-04T00:54:41.831Z,61.80
2024-03-04T00:55:41.883Z,62.20
2024-03-04T00:56:41.824Z,62.50
2024-03-04T00:57:41.829Z,61.20
2024-03-04T00:58:41.776Z,59.60
2024-03-04T00:59:41.758Z,63.30
2024-03-04T01:00:41.773Z,61.40
2024-03-04T01:01:41.765Z,65.00
2024-03-04T01:02:41.943Z,62.90
2024-03-04T01:03:41.685Z,64.20
2024-03-04T01:04:41.741Z,62.10
2024-03-04T01:05:41.648Z,65.50
2024-03-04T01:06:41.633Z,65.40
2024-03-04T01:07:41.652Z,61.10
2024-03-04T01:08:41.706Z,61.50
2024-03-04T01:09:41.569Z,62.80
2024-03-04T01:10:41.596Z,64.60
2024-03-04T01:11:41.537Z,65.00
2024-03-04T01:12:41.519Z,62.80
2024-03-04T01:13:41.548Z,64.40
2024-03-04T01:14:41.492Z,64.00
2024-03-04T01:15:41.478Z,62.90
2024-03-04T01:16:41.507Z,62.50
2024-03-04T01:17:41.453Z,68.10
2024-03-04T01:18:41.419Z,65.40
2024-03-04T01:19:41.516Z,66.10
2024-03-04T01:20:41.377Z,63.60
2024-03-04T01:21:41.366Z,66.40
2024-03-04T01:22:41.373Z,66.10
2024-03-04T01:23:41.326Z,67.60
2024-03-04T01:24:41.329Z,61.40
2024-03-04T01:25:41.394Z,61.90
2024-03-04T01:26:41.285Z,65.00
2024-03-04T01:27:41.265Z,66.60
2024-03-04T01:28:41.328Z,69.80
2024-03-04T01:29:41.235Z,68.40
2024-03-04T01:30:41.230Z,68.30
2024-03-04T01:31:41.238Z,66.70
2024-03-04T01:32:41.197Z,73.00
2024-03-04T01:33:41.177Z,67.70
2024-03-04T01:34:41.444Z,67.60
2024-03-04T01:35:41.129Z,68.10
2024-03-04T01:36:41.113Z,65.00
2024-03-04T01:37:41.127Z,68.60
2024-03-04T01:38:41.084Z,67.50
2024-03-04T01:39:41.065Z,72.10
2024-03-04T01:40:41.241Z,70.40
2024-03-04T01:41:41.052Z,65.40
2024-03-04T01:42:41.004Z,66.40
2024-03-04T01:43:41.046Z,64.60
2024-03-04T01:44:40.965Z,69.40
2024-03-04T01:45:40.978Z,68.50
2024-03-04T01:46:40.981Z,70.60
2024-03-04T01:47:40.944Z,69.50
2024-03-04T01:48:40.901Z,66.40
2024-03-04T01:49:40.997Z,67.60
2024-03-04T01:50:40.861Z,68.80
2024-03-04T01:51:40.827Z,70.70
2024-03-04T01:52:40.869Z,70.10
2024-03-04T01:53:40.791Z,67.80
2024-03-04T01:54:40.776Z,71.70
2024-03-04T01:55:40.838Z,68.30
2024-03-04T01:56:40.736Z,66.30
2024-03-04T01:57:40.734Z,70.60
2024-03-04T01:58:40.738Z,69.60
2024-03-04T01:59:40.697Z,66.20
2024-03-04T02:00:41.108Z,65.00
2024-03-04T02:01:40.727Z,69.30
2024-03-04T02:02:40.636Z,68.50
2024-03-04T02:03:40.714Z,73.30
2024-03-04T02:04:40.705Z,71.30
2024-03-04T02:05:40.609Z,69.00
2024-03-04T02:06:40.637Z,68.80
2024-03-04T02:07:40.662Z,67.10
2024-03-04T02:08:40.606Z,70.30
2024-03-04T02:09:40.505Z,70.40
2024-03-04T02:10:40.573Z,65.70
2024-03-04T02:11:40.587Z,69.30
2024-03-04T02:12:40.475Z,64.50
2024-03-04T02:13:40.483Z,65.30
2024-03-04T02:14:40.447Z,67.70
2024-03-04T02:15:40.427Z,67.00
2024-03-04T02:16:40.436Z,65.10
2024-03-04T02:17:40.383Z,64.40
2024-03-04T02:18:40.354Z,62.30
2024-03-04T02:19:40.405Z,67.90
2024-03-04T02:20:40.342Z,66.10
2024-03-04T02:21:40.316Z,67.60
2024-03-04T02:22:40.347Z,66.80
2024-03-04T02:23:40.274Z,66.80
2024-03-04T02:24:40.249Z,69.90
2024-03-04T02:25:40.298Z,66.50
2024-03-04T02:26:40.222Z,62.00
2024-03-04T02:27:40.200Z,68.90
2024-03-04T02:28:40.237Z,68.10
2024-03-04T02:29:40.166Z,67.10
2024-03-04T02:30:40.184Z,66.70
2024-03-04T02:31:40.186Z,65.70
2024-03-04T02:32:40.272Z,70.60
2024-03-04T02:33:40.092Z,76.80
2024-03-04T02:34:40.122Z,69.10
2024-03-04T02:35:40.039Z,71.40
2024-03-04T02:36:40.053Z,76.60
2024-03-04T02:37:40.074Z,70.70
2024-03-04T02:38:39.994Z,73.70
2024-03-04T02:39:39.989Z,69.60
2024-03-04T02:40:40.052Z,74.90
2024-03-04T02:41:39.961Z,71.40
2024-03-04T02:42:39.930Z,81.40
2024-03-04T02:43:39.942Z,68.30
2024-03-04T02:44:39.880Z,72.40
2024-03-04T02:45:39.880Z,71.70
2024-03-04T02:46:39.923Z,76.70
2024-03-04T02:47:39.924Z,73.20
2024-03-04T02:48:39.824Z,80.70
2024-03-04T02:49:39.844Z,75.30
2024-03-04T02:50:39.788Z,80.20
2024-03-04T02:51:39.772Z,81.50
2024-03-04T02:52:39.812Z,78.60
2024-03-04T02:53:39.738Z,76.50
2024-03-04T02:54:39.715Z,78.20
2024-03-04T02:55:39.757Z,75.90
2024-03-04T02:56:39.659Z,72.80
2024-03-04T02:57:39.640Z,75.30
2024-03-04T02:58:39.671Z,76.10
2024-03-04T02:59:39.613Z,72.10
2024-03-04T03:00:39.655Z,77.40
2024-03-04T03:01:39.650Z,75.70
2024-03-04T03:02:39.584Z,76.00
2024-03-04T03:03:39.659Z,76.40
2024-03-04T03:04:39.573Z,76.90
2024-03-04T03:05:39.495Z,70.50
2024-03-04T03:06:39.492Z,75.30
2024-03-04T03:07:39.497Z,72.10
2024-03-04T03:08:39.457Z,73.60
2024-03-04T03:09:39.461Z,70.00
2024-03-04T03:10:39.446Z,74.10
2024-03-04T03:11:39.446Z,76.60
2024-03-04T03:12:39.494Z,77.70
2024-03-04T03:13:39.415Z,79.20
2024-03-04T03:14:39.361Z,84.80
2024-03-04T03:15:39.340Z,85.70
2024-03-04T03:16:39.372Z,91.50
2024-03-04T03:17:39.293Z,86.60
2024-03-04T03:18:39.269Z,97.60
2024-03-04T03:19:39.265Z,94.10
2024-03-04T03:20:39.284Z,97.20
2024-03-04T03:21:39.224Z,93.50
2024-03-04T03:22:39.236Z,98.20
2024-03-04T03:23:39.165Z,101.90
2024-03-04T03:24:39.158Z,105.90
2024-03-04T03:25:39.173Z,100.90
2024-03-04T03:26:39.125Z,101.80
2024-03-04T03:27:39.115Z,98.30
2024-03-04T03:28:39.122Z,102.40
2024-03-04T03:29:39.067Z,100.30
2024-03-04T03:30:39.042Z,101.50
2024-03-04T03:31:39.077Z,105.20
2024-03-04T03:32:39.103Z,104.90
2024-03-04T03:33:39.003Z,96.00
2024-03-04T03:34:39.053Z,99.50
2024-03-04T03:35:38.967Z,95.10
2024-03-04T03:36:38.979Z,91.50
2024-03-04T03:37:38.950Z,88.00
2024-03-04T03:38:38.914Z,92.20
2024-03-04T03:39:38.883Z,93.90
2024-03-04T03:40:38.949Z,96.70
2024-03-04T03:41:38.870Z,92.00
2024-03-04T03:42:38.868Z,89.60
2024-03-04T03:43:38.849Z,95.50
2024-03-04T03:44:38.799Z,93.60
2024-03-04T03:45:41.973Z,95.00
2024-03-04T03:46:39.835Z,90.80
2024-03-04T03:47:38.858Z,93.00
2024-03-04T03:48:38.729Z,91.20
2024-03-04T03:49:38.812Z,95.40
2024-03-04T03:50:38.694Z,92.50
2024-03-04T03:51:38.674Z,93.80
2024-03-04T03:52:38.752Z,94.20
2024-03-04T03:53:38.817Z,93.60
2024-03-04T03:54:38.624Z,90.00
2024-03-04T03:55:38.657Z,96.80
2024-03-04T03:56:38.585Z,98.30
2024-03-04T03:57:50.877Z,97.30
2024-03-04T03:58:39.655Z,98.30
2024-03-04T03:59:38.531Z,100.40
2024-03-04T04:00:38.526Z,102.20
2024-03-04T04:01:38.760Z,103.70
2024-03-04T04:02:38.486Z,103.00
2024-03-04T04:03:38.465Z,103.30
2024-03-04T04:04:38.513Z,101.10
2024-03-04T04:05:38.445Z,107.90
2024-03-04T04:06:38.414Z,105.10
2024-03-04T04:07:38.528Z,107.90
2024-03-04T04:08:38.392Z,110.90
2024-03-04T04:09:38.381Z,112.00
2024-03-04T04:10:38.429Z,112.30
2024-03-04T04:11:38.371Z,108.10
2024-03-04T04:12:38.306Z,107.90
2024-03-04T04:13:38.325Z,110.90
2024-03-04T04:14:38.271Z,111.70
2024-03-04T04:15:38.300Z,108.00
2024-03-04T04:16:38.311Z,102.60
2024-03-04T04:17:38.251Z,107.20
2024-03-04T04:18:38.198Z,107.00
2024-03-04T04:19:38.209Z,111.70
2024-03-04T04:20:38.191Z,103.00
2024-03-04T04:21:38.935Z,110.80
2024-03-04T04:22:38.168Z,111.90
2024-03-04T04:23:38.112Z,106.90
2024-03-04T04:24:38.112Z,106.10
2024-03-04T04:25:38.131Z,111.30
2024-03-04T04:26:38.068Z,113.60
2024-03-04T04:27:38.035Z,112.30
2024-03-04T04:28:38.021Z,124.20
2024-03-04T04:29:37.992Z,116.70
2024-03-04T04:30:37.988Z,117.50
2024-03-04T04:31:38.307Z,120.30
2024-03-04T04:32:37.963Z,120.30
2024-03-04T04:33:38.047Z,128.20
2024-03-04T04:34:38.067Z,122.80
2024-03-04T04:35:37.888Z,122.50
2024-03-04T04:36:37.873Z,126.30
2024-03-04T04:37:37.965Z,120.00
2024-03-04T04:38:37.823Z,125.60
2024-03-04T04:39:37.800Z,125.90
2024-03-04T04:40:37.849Z,128.60
2024-03-04T04:41:37.780Z,131.20
2024-03-04T04:42:37.782Z,123.60
2024-03-04T04:43:37.761Z,129.50
2024-03-04T04:44:37.715Z,129.00
2024-03-04T04:45:37.682Z,131.20
2024-03-04T04:46:37.793Z,129.70
2024-03-04T04:47:37.701Z,118.90
2024-03-04T04:48:37.667Z,135.20
2024-03-04T04:49:37.688Z,125.00
2024-03-04T04:50:37.608Z,122.20
2024-03-04T04:51:37.577Z,112.40
2024-03-04T04:52:37.674Z,114.80
2024-03-04T04:53:37.559Z,106.30
2024-03-04T04:54:37.519Z,122.20
2024-03-04T04:55:37.566Z,123.90
2024-03-04T04:56:37.485Z,104.80
2024-03-04T04:57:37.486Z,117.10
2024-03-04T04:58:37.531Z,117.10
2024-03-04T04:59:37.478Z,116.30
2024-03-04T05:00:37.478Z,111.50
2024-03-04T05:01:37.462Z,119.30
2024-03-04T05:02:37.410Z,120.30
2024-03-04T05:03:52.418Z,125.80
2024-03-04T05:04:50.855Z,126.90
2024-03-04T05:05:38.354Z,132.00
2024-03-04T05:06:37.314Z,136.20
2024-03-04T05:07:37.532Z,149.30
2024-03-04T05:08:37.279Z,157.50
2024-03-04T05:09:37.256Z,152.30
2024-03-04T05:10:37.323Z,152.80
2024-03-04T05:11:37.236Z,164.10
2024-03-04T05:12:37.209Z,156.10
2024-03-04T05:13:37.246Z,168.10
2024-03-04T05:14:37.180Z,162.80
2024-03-04T05:15:37.205Z,155.10
2024-03-04T05:16:37.145Z,149.00
2024-03-04T05:17:37.149Z,165.10
2024-03-04T05:18:37.112Z,157.40
2024-03-04T05:19:37.104Z,166.90
2024-03-04T05:20:50.228Z,178.70
2024-03-04T05:21:39.109Z,176.90
2024-03-04T05:22:37.284Z,187.70
2024-03-04T05:23:37.004Z,182.50
2024-03-04T05:24:36.997Z,183.50
2024-03-04T05:25:37.006Z,188.50
2024-03-04T05:26:36.966Z,183.60
2024-03-04T05:27:36.970Z,194.30
2024-03-04T05:28:37.082Z,170.20
2024-03-04T05:29:36.915Z,196.60
2024-03-04T05:30:36.917Z,198.40
2024-03-04T05:31:36.895Z,188.30
2024-03-04T05:32:37.006Z,193.70
2024-03-04T05:33:36.834Z,198.60
2024-03-04T05:34:36.914Z,206.00
2024-03-04T05:35:36.797Z,193.90
2024-03-04T05:36:36.794Z,205.80
2024-03-04T05:37:36.814Z,203.20
2024-03-04T05:38:36.761Z,200.20
2024-03-04T05:39:36.726Z,208.80
2024-03-04T05:40:36.774Z,198.10
2024-03-04T05:41:36.705Z,190.40
2024-03-04T05:42:36.689Z,202.70
2024-03-04T05:43:36.719Z,195.80
2024-03-04T05:44:36.652Z,236.80
2024-03-04T05:45:36.613Z,237.40
2024-03-04T05:46:36.697Z,215.60
2024-03-04T05:47:36.637Z,225.80
2024-03-04T05:48:36.559Z,225.90
2024-03-04T05:49:36.733Z,222.20
2024-03-04T05:50:36.523Z,231.90
2024-03-04T05:51:36.503Z,249.30
2024-03-04T05:52:36.548Z,241.20
2024-03-04T05:53:36.469Z,237.60
2024-03-04T05:54:36.557Z,261.40
2024-03-04T05:55:36.523Z,230.00
2024-03-04T05:56:36.433Z,244.30
2024-03-04T05:57:36.460Z,230.70
2024-03-04T05:58:36.414Z,238.40
2024-03-04T05:59:36.358Z,244.80
2024-03-04T06:00:36.419Z,251.80
2024-03-04T06:01:36.447Z,254.80
2024-03-04T06:02:36.319Z,244.60
2024-03-04T06:03:36.306Z,223.80
2024-03-04T06:04:37.640Z,242.90
2024-03-04T06:05:37.401Z,248.50
2024-03-04T06:06:36.241Z,254.00
2024-03-04T06:07:36.241Z,262.00
2024-03-04T06:08:36.232Z,256.00
2024-03-04T06:09:36.178Z,261.10
2024-03-04T06:10:36.222Z,276.50
2024-03-04T06:11:36.268Z,262.90
2024-03-04T06:12:36.125Z,227.80
2024-03-04T06:13:36.193Z,243.80
2024-03-04T06:14:36.081Z,235.40
2024-03-04T06:15:36.058Z,276.50
2024-03-04T06:16:36.142Z,229.90
2024-03-04T06:17:36.073Z,250.10
2024-03-04T06:18:36.028Z,220.40
2024-03-04T06:19:36.032Z,241.70
2024-03-04T06:20:36.004Z,245.40
2024-03-04T06:21:35.974Z,247.30
2024-03-04T06:22:36.178Z,271.70
2024-03-04T06:23:35.933Z,245.70
2024-03-04T06:24:35.919Z,239.90
2024-03-04T06:25:36.023Z,258.60
2024-03-04T06:26:36.880Z,293.10
2024-03-04T06:27:35.877Z,283.40
2024-03-04T06:28:35.861Z,307.40
2024-03-04T06:29:35.835Z,324.70
2024-03-04T06:30:35.794Z,280.10
2024-03-04T06:31:35.847Z,270.00
2024-03-04T06:32:35.795Z,292.60
2024-03-04T06:33:44.874Z,295.70
2024-03-04T06:34:37.765Z,323.50
2024-03-04T06:35:35.711Z,303.80
2024-03-04T06:36:35.685Z,300.00
2024-03-04T06:37:35.703Z,309.70
2024-03-04T06:38:35.667Z,371.50
2024-03-04T06:39:35.655Z,345.70
2024-03-04T06:40:35.708Z,302.00
2024-03-04T06:41:35.622Z,302.20
2024-03-04T06:42:35.585Z,291.40
2024-03-04T06:43:35.682Z,366.50
2024-03-04T06:44:35.585Z,295.20
2024-03-04T06:45:35.540Z,287.50
2024-03-04T06:46:35.569Z,288.40
2024-03-04T06:47:35.540Z,312.40
2024-03-04T06:48:35.486Z,302.80
2024-03-04T06:49:35.624Z,273.30
2024-03-04T06:50:38.047Z,288.80
2024-03-04T06:51:36.446Z,307.30
2024-03-04T06:52:35.511Z,291.40
2024-03-04T06:53:35.396Z,328.40
2024-03-04T06:54:35.379Z,289.70
2024-03-04T06:55:35.423Z,273.50
2024-03-04T06:56:35.353Z,283.80
2024-03-04T06:57:35.316Z,290.30
2024-03-04T06:58:35.354Z,304.10
2024-03-04T06:59:35.284Z,278.40
2024-03-04T07:00:35.310Z,270.20
2024-03-04T07:01:35.359Z,256.80
2024-03-04T07:02:35.259Z,238.20
2024-03-04T07:03:35.205Z,272.20
2024-03-04T07:04:35.214Z,238.90
2024-03-04T07:05:35.172Z,280.70
2024-03-04T07:06:35.305Z,272.00
2024-03-04T07:07:35.144Z,244.20
2024-03-04T07:08:35.121Z,247.50
2024-03-04T07:09:35.093Z,240.10
2024-03-04T07:10:35.143Z,282.60
2024-03-04T07:11:35.137Z,266.50
2024-03-04T07:12:35.059Z,291.10
2024-03-04T07:13:35.052Z,261.30
2024-03-04T07:14:35.022Z,278.20
2024-03-04T07:15:34.995Z,253.90
2024-03-04T07:16:34.999Z,253.90
2024-03-04T07:17:35.071Z,261.10
2024-03-04T07:18:34.963Z,303.60
2024-03-04T07:19:35.000Z,266.20
2024-03-04T07:20:34.945Z,228.30
2024-03-04T07:21:34.905Z,212.10
2024-03-04T07:22:34.931Z,228.00
2024-03-04T07:23:34.860Z,255.70
2024-03-04T07:24:34.844Z,244.40
2024-03-04T07:25:34.863Z,277.50
2024-03-04T07:26:34.817Z,220.80
2024-03-04T07:27:34.810Z,246.90
2024-03-04T07:28:34.901Z,239.60
2024-03-04T07:29:40.819Z,253.10
2024-03-04T07:30:36.745Z,263.50
2024-03-04T07:31:35.249Z,207.10
2024-03-04T07:32:34.732Z,199.90
2024-03-04T07:33:35.725Z,203.60
2024-03-04T07:34:34.760Z,218.90
2024-03-04T07:35:34.660Z,220.80
2024-03-04T07:36:34.642Z,225.90
2024-03-04T07:37:34.677Z,257.30
2024-03-04T07:38:34.626Z,218.70
2024-03-04T07:39:34.617Z,255.70
2024-03-04T07:40:34.632Z,231.90
2024-03-04T07:41:34.573Z,234.60
2024-03-04T07:42:34.569Z,277.60
2024-03-04T07:43:34.564Z,280.70
2024-03-04T07:44:34.528Z,298.10
2024-03-04T07:45:34.501Z,250.00
2024-03-04T07:46:34.543Z,272.20
2024-03-04T07:47:34.593Z,245.90
2024-03-04T07:48:34.466Z,290.20
2024-03-04T07:49:34.713Z,351.10
2024-03-04T07:50:34.435Z,250.90
2024-03-04T07:51:34.422Z,260.30
2024-03-04T07:52:34.446Z,360.60
2024-03-04T07:53:34.401Z,319.20
2024-03-04T07:54:34.346Z,317.90
2024-03-04T07:55:34.384Z,236.50
2024-03-04T07:56:34.304Z,236.30
2024-03-04T07:57:34.297Z,287.60
2024-03-04T07:58:34.293Z,262.90
2024-03-04T07:59:34.249Z,263.80
2024-03-04T08:00:34.470Z,377.90
2024-03-04T08:01:34.406Z,399.10
2024-03-04T08:02:34.220Z,374.60
2024-03-04T08:03:34.187Z,325.60
2024-03-04T08:04:34.244Z,413.30
2024-03-04T08:05:34.150Z,270.90
2024-03-04T08:06:34.187Z,374.60
2024-03-04T08:07:34.219Z,495.10
2024-03-04T08:08:34.129Z,281.70
2024-03-04T08:09:34.101Z,322.20
2024-03-04T08:10:34.101Z,410.70
2024-03-04T08:11:34.085Z,412.70
2024-03-04T08:12:34.079Z,290.60
2024-03-04T08:13:34.085Z,359.60
2024-03-04T08:14:34.006Z,286.80
2024-03-04T08:15:34.009Z,335.70
2024-03-04T08:16:34.993Z,287.90
2024-03-04T08:17:34.458Z,386.10
2024-03-04T08:18:33.942Z,353.40
2024-03-04T08:19:34.008Z,359.50
2024-03-04T08:20:35.051Z,387.90
2024-03-04T08:21:33.880Z,298.40
2024-03-04T08:22:33.905Z,299.20
2024-03-04T08:23:33.902Z,376.70
2024-03-04T08:24:33.839Z,314.20
2024-03-04T08:25:33.986Z,367.80
2024-03-04T08:26:33.793Z,438.40
2024-03-04T08:27:33.770Z,325.90
2024-03-04T08:28:36.064Z,368.50
2024-03-04T08:29:34.779Z,341.70
2024-03-04T08:30:33.741Z,363.90
2024-03-04T08:31:33.769Z,488.00
2024-03-04T08:32:33.716Z,340.30
2024-03-04T08:33:33.694Z,345.40
2024-03-04T08:34:33.762Z,277.20
2024-03-04T08:35:33.636Z,418.60
2024-03-04T08:36:33.620Z,356.90
2024-03-04T08:37:33.637Z,350.80
2024-03-04T08:38:33.582Z,495.20
2024-03-04T08:39:33.588Z,449.50
2024-03-04T08:40:33.623Z,415.80
2024-03-04T08:41:33.526Z,537.80
2024-03-04T08:42:33.526Z,418.30
2024-03-04T08:43:33.644Z,400.50
2024-03-04T08:44:33.488Z,427.60
2024-03-04T08:45:33.507Z,377.20
2024-03-04T08:46:33.498Z,358.20
2024-03-04T08:47:33.500Z,337.70
2024-03-04T08:48:33.397Z,299.80
2024-03-04T08:49:34.430Z,482.50
2024-03-04T08:50:33.414Z,351.90
2024-03-04T08:51:33.379Z,436.70
2024-03-04T08:52:33.419Z,367.50
2024-03-04T08:53:33.331Z,408.00
2024-03-04T08:54:33.303Z,361.40
2024-03-04T08:55:33.335Z,329.80
2024-03-04T08:56:33.322Z,309.70
2024-03-04T08:57:33.276Z,503.30
2024-03-04T08:58:33.308Z,346.50
2024-03-04T08:59:33.235Z,350.70
2024-03-04T09:00:33.218Z,300.60
2024-03-04T09:01:33.499Z,416.00
2024-03-04T09:02:33.185Z,392.20
2024-03-04T09:03:33.158Z,257.40
2024-03-04T09:04:33.210Z,334.40
2024-03-04T09:05:33.182Z,289.30
2024-03-04T09:06:33.114Z,329.90
2024-03-04T09:07:33.147Z,342.30
2024-03-04T09:08:33.085Z,342.40
2024-03-04T09:09:33.071Z,338.30
2024-03-04T09:10:34.420Z,358.80
2024-03-04T09:11:33.086Z,398.00
2024-03-04T09:12:33.049Z,263.70
2024-03-04T09:13:33.051Z,346.20
2024-03-04T09:14:32.974Z,340.40
2024-03-04T09:15:32.971Z,515.60
2024-03-04T09:16:32.977Z,455.10
2024-03-04T09:17:32.923Z,434.60
2024-03-04T09:18:33.026Z,474.30
2024-03-04T09:19:32.926Z,325.80
2024-03-04T09:20:32.840Z,275.70
2024-03-04T09:21:32.841Z,285.40
2024-03-04T09:22:32.843Z,363.20
2024-03-04T09:23:33.832Z,277.50
2024-03-04T09:24:32.774Z,294.60
2024-03-04T09:25:32.804Z,299.30
2024-03-04T09:26:32.750Z,318.10
2024-03-04T09:27:32.733Z,233.30
2024-03-04T09:28:32.818Z,294.90
2024-03-04T09:29:32.764Z,244.40
2024-03-04T09:30:32.701Z,312.00
2024-03-04T09:31:32.695Z,255.30
2024-03-04T09:32:32.661Z,219.10
2024-03-04T09:33:32.664Z,194.90
2024-03-04T09:34:32.707Z,245.20
2024-03-04T09:35:33.621Z,226.60
2024-03-04T09:36:32.576Z,193.90
2024-03-04T09:37:32.577Z,166.00
2024-03-04T09:38:32.544Z,219.70
2024-03-04T09:39:32.533Z,262.80
2024-03-04T09:40:32.545Z,173.10
2024-03-04T09:41:32.506Z,188.50
2024-03-04T09:42:32.463Z,213.70
2024-03-04T09:43:32.479Z,181.00
2024-03-04T09:44:32.437Z,210.00
2024-03-04T09:45:33.392Z,182.90
2024-03-04T09:46:32.438Z,156.90
2024-03-04T09:47:32.421Z,152.80
2024-03-04T09:48:32.378Z,134.30
2024-03-04T09:49:32.388Z,144.50
2024-03-04T09:50:32.330Z,166.50
2024-03-04T09:51:32.354Z,136.50
2024-03-04T09:52:32.308Z,136.20
2024-03-04T09:53:32.273Z,124.60
2024-03-04T09:54:32.253Z,134.10
2024-03-04T09:55:32.312Z,121.90
2024-03-04T09:56:32.260Z,133.20
2024-03-04T09:57:32.215Z,143.10
2024-03-04T09:58:32.311Z,118.10
2024-03-04T09:59:32.181Z,124.70
2024-03-04T10:00:32.182Z,163.10
2024-03-04T10:01:32.231Z,130.30
2024-03-04T10:02:32.164Z,127.10
2024-03-04T10:03:32.147Z,134.90
2024-03-04T10:04:32.554Z,121.60
2024-03-04T10:05:32.080Z,125.80
2024-03-04T10:06:32.067Z,140.50
2024-03-04T10:07:32.142Z,133.80
2024-03-04T10:08:32.022Z,122.00
2024-03-04T10:09:32.296Z,119.10
2024-03-04T10:10:32.057Z,108.00
2024-03-04T10:11:32.110Z,106.10
2024-03-04T10:12:31.997Z,104.70
2024-03-04T10:13:32.010Z,102.50
2024-03-04T10:14:31.933Z,102.00
2024-03-04T10:15:31.921Z,95.60
2024-03-04T10:16:31.980Z,101.60
2024-03-04T10:17:31.877Z,104.30
2024-03-04T10:18:31.986Z,95.60
2024-03-04T10:19:31.941Z,106.50
2024-03-04T10:20:31.829Z,107.90
2024-03-04T10:21:31.808Z,97.40
2024-03-04T10:22:31.864Z,103.90
2024-03-04T10:23:31.780Z,103.70
2024-03-04T10:24:31.791Z,101.60
2024-03-04T10:25:31.777Z,96.30
2024-03-04T10:26:31.716Z,96.60
2024-03-04T10:27:31.718Z,98.00
2024-03-04T10:28:31.706Z,102.70
2024-03-04T10:29:31.681Z,91.90
2024-03-04T10:30:31.652Z,92.90
2024-03-04T10:31:31.650Z,105.50
2024-03-04T10:32:31.651Z,88.90
2024-03-04T10:33:32.364Z,92.40
2024-03-04T10:34:31.583Z,92.70
2024-03-04T10:35:31.596Z,95.90
2024-03-04T10:36:31.555Z,95.50
2024-03-04T10:37:31.547Z,90.90
2024-03-04T10:38:31.613Z,91.20
2024-03-04T10:39:31.498Z,93.70
2024-03-04T10:40:31.535Z,94.50
2024-03-04T10:41:31.477Z,85.20
2024-03-04T10:42:31.442Z,88.20
2024-03-04T10:43:31.433Z,93.30
2024-03-04T10:44:31.425Z,86.50
2024-03-04T10:45:31.394Z,94.90
2024-03-04T10:46:31.560Z,84.50
2024-03-04T10:47:31.426Z,90.60
2024-03-04T10:48:31.356Z,82.70
2024-03-04T10:49:31.431Z,88.90
2024-03-04T10:50:31.308Z,93.60
2024-03-04T10:51:31.306Z,87.50
2024-03-04T10:52:31.321Z,94.90
2024-03-04T10:53:31.258Z,93.00
2024-03-04T10:54:31.227Z,94.50
2024-03-04T10:55:31.350Z,88.80
2024-03-04T10:56:31.209Z,91.70
2024-03-04T10:57:31.215Z,87.30
2024-03-04T10:58:31.191Z,85.70
2024-03-04T10:59:31.158Z,88.40
2024-03-04T11:00:31.154Z,88.60
2024-03-04T11:01:31.238Z,84.20
2024-03-04T11:02:31.154Z,97.20
2024-03-04T11:03:31.097Z,85.90
2024-03-04T11:04:31.113Z,84.30
2024-03-04T11:05:31.046Z,88.90
2024-03-04T11:06:31.031Z,82.50
2024-03-04T11:07:31.060Z,95.80
2024-03-04T11:08:31.032Z,91.40
2024-03-04T11:09:30.964Z,89.00
2024-03-04T11:10:31.000Z,85.50
2024-03-04T11:11:30.968Z,88.40
2024-03-04T11:12:30.944Z,85.60
2024-03-04T11:13:31.093Z,86.90
2024-03-04T11:14:30.909Z,78.70
2024-03-04T11:15:30.905Z,77.40
2024-03-04T11:16:30.899Z,81.60
2024-03-04T11:17:30.885Z,83.80
2024-03-04T11:18:30.835Z,74.30
2024-03-04T11:19:30.859Z,76.00
2024-03-04T11:20:30.829Z,78.70
2024-03-04T11:21:30.765Z,76.20
2024-03-04T11:22:30.789Z,79.70
2024-03-04T11:23:30.736Z,81.80
2024-03-04T11:24:30.746Z,76.90
2024-03-04T11:25:30.742Z,74.00
2024-03-04T11:26:30.691Z,73.80
2024-03-04T11:27:30.671Z,75.20
2024-03-04T11:28:30.719Z,76.10
2024-03-04T11:29:30.645Z,77.00
2024-03-04T11:30:30.646Z,69.90
2024-03-04T11:31:30.697Z,78.70
2024-03-04T11:32:31.004Z,73.50
2024-03-04T11:33:30.554Z,69.20
2024-03-04T11:34:30.586Z,73.90
2024-03-04T11:35:30.570Z,71.70
2024-03-04T11:36:30.532Z,68.50
2024-03-04T11:37:30.561Z,70.40
2024-03-04T11:38:30.474Z,72.30
2024-03-04T11:39:30.475Z,70.90
2024-03-04T11:40:30.463Z,68.80
2024-03-04T11:41:30.582Z,71.10
2024-03-04T11:42:30.400Z,66.70
2024-03-04T11:43:30.429Z,66.90
2024-03-04T11:44:30.673Z,68.00
2024-03-04T11:45:30.381Z,64.40
2024-03-04T11:46:30.503Z,69.40
2024-03-04T11:47:30.400Z,64.80
2024-03-04T11:48:30.397Z,66.50
2024-03-04T11:49:30.776Z,70.20
2024-03-04T11:50:30.296Z,65.80
2024-03-04T11:51:30.288Z,62.80
2024-03-04T11:52:30.365Z,64.90
2024-03-04T11:53:30.244Z,62.10
2024-03-04T11:54:30.210Z,64.30
2024-03-04T11:55:30.221Z,62.60
2024-03-04T11:56:30.190Z,65.10
2024-03-04T11:57:30.236Z,62.20
2024-03-04T11:58:30.175Z,67.20
2024-03-04T11:59:30.127Z,63.90
2024-03-04T12:00:30.118Z,60.30
2024-03-04T12:01:30.164Z,64.80
2024-03-04T12:02:30.139Z,62.70
2024-03-04T12:03:30.122Z,66.50
2024-03-04T12:04:30.464Z,62.00
2024-03-04T12:05:30.026Z,66.40
2024-03-04T12:06:30.011Z,60.70
2024-03-04T12:07:30.028Z,61.20
2024-03-04T12:08:45.249Z,63.30
2024-03-04T12:09:49.816Z,66.70
2024-03-04T12:10:31.973Z,57.50
2024-03-04T12:11:30.146Z,63.70
2024-03-04T12:12:29.913Z,59.40
2024-03-04T12:13:29.935Z,60.80
2024-03-04T12:14:29.926Z,58.90
2024-03-04T12:15:29.859Z,63.40
2024-03-04T12:16:30.048Z,55.90
2024-03-04T12:17:29.920Z,64.90
2024-03-04T12:18:29.812Z,63.10
2024-03-04T12:19:29.864Z,60.80
2024-03-04T12:20:29.799Z,64.10
2024-03-04T12:21:29.758Z,60.70
2024-03-04T12:22:32.836Z,61.10
2024-03-04T12:23:30.731Z,63.40
2024-03-04T12:24:29.701Z,58.40
2024-03-04T12:25:29.723Z,61.50
2024-03-04T12:26:29.669Z,62.50
2024-03-04T12:27:29.746Z,58.50
2024-03-04T12:28:29.679Z,64.10
2024-03-04T12:29:29.614Z,58.80
2024-03-04T12:30:30.631Z,58.30
2024-03-04T12:31:29.600Z,56.00
2024-03-04T12:32:29.573Z,63.10
2024-03-04T12:33:29.536Z,66.40
2024-03-04T12:34:29.562Z,59.40
2024-03-04T12:35:29.501Z,62.10
2024-03-04T12:36:29.515Z,62.40
2024-03-04T12:37:29.474Z,62.30
2024-03-04T12:38:29.473Z,56.80
2024-03-04T12:39:29.443Z,57.90